»·PEaware :: N8DL KOTH-KPDX

N8DL :: KOTH-KPDX

FLIGHT INFORMATION

Flight Status: Arrived
Operator: Privately registered:
United States
More flights under this callsign
Pilot: Dean L. (8400)
Aircraft: GATES LEARJET LEARJET 25
(LJ25)
More flights by this aircraft type
Origin: KOTH North Bend Mun
United States
Destination: KPDX Portland Intl
United States
More flights between these airports :: More routes between these airports
Route: +OTH6 SCOTY V121 EUG CITYY TIMBRS2
File this flight plan on PilotEdge
Remarks:
Altitude:
(Current/Filed)
25,000ft
Speed:
(Current/Filed)
400kts
Departed: 27-Oct-17 02:25 PM
Arrived: 27-Oct-17 03:05 PM
Distance/Time
Traveled:
148nm/0:40
Distance/Time
To Go:
Arrived

Flight Plot

Page will automatically refresh every two minutes.

Flight plan parsing failed; only flown route is shown


Map Options




Map Legend


Flown Route
Filed Route
Departure Airport
Arrival Airport
Navaid (VOR, NDB)
Fix

Horizontal Profiles

Position Reports

Time Latitude Longitude Heading Altitude Ground
Speed
27-Oct-17 13:48 43.417108 -124.248066 236 11ft 0kts
27-Oct-17 13:49 43.417108 -124.248068 236 11ft 0kts
27-Oct-17 13:50 43.417107 -124.248069 236 11ft 0kts
27-Oct-17 13:51 43.417106 -124.248070 236 11ft 0kts
27-Oct-17 13:52 43.417106 -124.248071 236 11ft 0kts
27-Oct-17 13:53 43.417105 -124.248072 236 11ft 0kts
27-Oct-17 13:54 43.417105 -124.248073 236 11ft 0kts
27-Oct-17 13:55 43.417104 -124.248074 236 11ft 0kts
27-Oct-17 13:56 43.417104 -124.248075 236 11ft 0kts
27-Oct-17 13:57 43.417103 -124.248076 236 11ft 0kts
27-Oct-17 13:58 43.417103 -124.248078 236 11ft 0kts
27-Oct-17 13:59 43.417102 -124.248079 236 11ft 0kts
27-Oct-17 14:00 43.417102 -124.248080 236 11ft 0kts
27-Oct-17 14:01 43.417101 -124.248081 236 11ft 0kts
27-Oct-17 14:02 43.417100 -124.248082 236 11ft 0kts
27-Oct-17 14:03 43.417100 -124.248083 236 11ft 0kts
27-Oct-17 14:04 43.417099 -124.248084 236 11ft 0kts
27-Oct-17 14:05 43.417099 -124.248085 236 11ft 0kts
27-Oct-17 14:06 43.417098 -124.248086 236 11ft 0kts
27-Oct-17 14:12 43.414807 -124.246157 236 11ft 0kts
27-Oct-17 14:13 43.414807 -124.246157 236 11ft 0kts
27-Oct-17 14:14 43.414807 -124.246157 236 11ft 0kts
27-Oct-17 14:15 43.414807 -124.246157 236 11ft 0kts
27-Oct-17 14:16 43.414807 -124.246157 236 11ft 0kts
27-Oct-17 14:17 43.414807 -124.246157 236 11ft 0kts
27-Oct-17 14:18 43.414807 -124.246157 236 11ft 0kts
27-Oct-17 14:19 43.414807 -124.246157 236 11ft 0kts
27-Oct-17 14:20 43.414807 -124.246157 236 11ft 0kts
27-Oct-17 14:21 43.414807 -124.246157 236 11ft 0kts
27-Oct-17 14:22 43.414807 -124.246157 236 11ft 0kts
27-Oct-17 14:23 43.414807 -124.246157 236 11ft 0kts
27-Oct-17 14:24 43.414807 -124.246157 236 11ft 0kts
27-Oct-17 14:25 43.414807 -124.246158 236 11ft 0kts
27-Oct-17 14:26 43.416751 -124.245508 330 11ft 26kts
27-Oct-17 14:27 43.417113 -124.252082 242 11ft 28kts
27-Oct-17 14:28 43.414210 -124.259876 277 11ft 12kts
27-Oct-17 14:29 43.414304 -124.260059 344 11ft 0kts
27-Oct-17 14:30 43.417093 -124.252911 56 16ft 117kts
27-Oct-17 14:31 43.446543 -124.202403 51 4439ft 207kts
27-Oct-17 14:32 43.494830 -124.215537 271 5494ft 218kts
27-Oct-17 14:33 43.470665 -124.290479 232 6521ft 218kts
27-Oct-17 14:34 43.430730 -124.270113 82 7511ft 213kts
27-Oct-17 14:35 43.455323 -124.189998 66 11750ft 264kts
27-Oct-17 14:36 43.525557 -124.140472 355 16198ft 358kts
27-Oct-17 14:37 43.621946 -124.097146 56 20594ft 401kts
27-Oct-17 14:38 43.643131 -123.942892 80 24935ft 426kts
27-Oct-17 14:39 43.671411 -123.791750 71 25088ft 447kts
27-Oct-17 14:40 43.744442 -123.663566 15 24393ft 440kts
27-Oct-17 14:41 43.865685 -123.659346 3 23668ft 436kts
27-Oct-17 14:42 43.955264 -123.564321 74 22926ft 436kts
27-Oct-17 14:43 43.982944 -123.432388 52 22332ft 429kts
27-Oct-17 14:44 44.082091 -123.300332 51 19726ft 419kts
27-Oct-17 14:45 44.127691 -123.171077 76 17377ft 408kts
27-Oct-17 14:46 44.158277 -123.066073 38 15426ft 391kts
27-Oct-17 14:47 44.255020 -122.999981 24 12875ft 383kts
27-Oct-17 14:48 44.346735 -122.936286 25 11151ft 304kts
27-Oct-17 14:49 44.412460 -122.893884 25 11143ft 312kts
27-Oct-17 14:50 44.492445 -122.848984 18 11148ft 310kts
27-Oct-17 14:51 44.573360 -122.806982 26 11145ft 309kts
27-Oct-17 14:52 44.649237 -122.750980 29 11144ft 308kts
27-Oct-17 14:53 44.717482 -122.680663 29 11147ft 307kts
27-Oct-17 14:54 44.790644 -122.645503 11 11144ft 309kts
27-Oct-17 14:55 44.876515 -122.637125 0 11142ft 311kts
27-Oct-17 14:56 44.963288 -122.644611 355 10849ft 313kts
27-Oct-17 14:57 45.049591 -122.659285 354 10014ft 312kts
27-Oct-17 14:58 45.127469 -122.668395 358 9260ft 310kts
27-Oct-17 14:59 45.213647 -122.676869 358 8428ft 309kts
27-Oct-17 15:00 45.298820 -122.686005 358 7595ft 305kts
27-Oct-17 15:01 45.382740 -122.696032 356 6758ft 301kts
27-Oct-17 15:02 45.455877 -122.730002 340 6000ft 299kts
27-Oct-17 15:03 45.525625 -122.783542 328 4788ft 269kts
27-Oct-17 15:04 45.567761 -122.818111 10 4103ft 155kts
27-Oct-17 15:05 45.608113 -122.799578 25 3836ft 158kts
27-Oct-17 15:06 45.636311 -122.766073 127 3210ft 135kts
27-Oct-17 15:07 45.624630 -122.714228 103 2712ft 146kts
27-Oct-17 15:08 45.613580 -122.656908 109 1441ft 160kts
27-Oct-17 15:09 45.598416 -122.608122 116 205ft 119kts
27-Oct-17 15:10 45.587300 -122.579100 143 21ft 17kts
27-Oct-17 15:11 45.585734 -122.579352 168 21ft 0kts
27-Oct-17 15:12 45.585734 -122.579352 168 21ft 0kts
27-Oct-17 15:13 45.585732 -122.579352 168 21ft 0kts

Navigation Log

Ident Type
Flight plan parsing failed, navigation log unavailable